sensor_id;sensor_type;location;lat;lon;timestamp;temperature;humidity
5334;DHT22;2689;50.954;7.116;2023-03-01T00:00:00;0.40;99.80
5334;DHT22;2689;50.954;7.116;2023-03-01T00:02:28;0.40;99.90
5334;DHT22;2689;50.954;7.116;2023-03-01T00:04:55;0.40;99.90
5334;DHT22;2689;50.954;7.116;2023-03-01T00:07:22;0.30;99.90
5334;DHT22;2689;50.954;7.116;2023-03-01T00:09:50;0.30;99.90
5334;DHT22;2689;50.954;7.116;2023-03-01T00:12:16;0.30;99.90
5334;DHT22;2689;50.954;7.116;2023-03-01T00:14:43;0.30;99.90
5334;DHT22;2689;50.954;7.116;2023-03-01T00:17:10;0.30;99.90
5334;DHT22;2689;50.954;7.116;2023-03-01T00:19:37;0.20;99.90
5334;DHT22;2689;50.954;7.116;2023-03-01T00:22:04;0.30;99.90
5334;DHT22;2689;50.954;7.116;2023-03-01T00:24:31;0.20;99.90
5334;DHT22;2689;50.954;7.116;2023-03-01T00:26:59;0.20;99.90
5334;DHT22;2689;50.954;7.116;2023-03-01T00:29:27;0.20;99.90
5334;DHT22;2689;50.954;7.116;2023-03-01T00:31:54;0.20;99.90
5334;DHT22;2689;50.954;7.116;2023-03-01T00:34:21;0.20;99.90
5334;DHT22;2689;50.954;7.116;2023-03-01T00:36:48;0.20;99.90
5334;DHT22;2689;50.954;7.116;2023-03-01T00:39:15;0.10;99.90
5334;DHT22;2689;50.954;7.116;2023-03-01T00:41:42;0.10;99.90
5334;DHT22;2689;50.954;7.116;2023-03-01T00:44:11;0.10;99.90
5334;DHT22;2689;50.954;7.116;2023-03-01T00:46:38;0.10;99.90
5334;DHT22;2689;50.954;7.116;2023-03-01T00:49:05;0.00;99.90
5334;DHT22;2689;50.954;7.116;2023-03-01T00:51:32;0.00;99.90
5334;DHT22;2689;50.954;7.116;2023-03-01T00:54:01;0.00;99.90
5334;DHT22;2689;50.954;7.116;2023-03-01T00:56:31;0.00;99.90
5334;DHT22;2689;50.954;7.116;2023-03-01T00:58:58;0.00;99.90
5334;DHT22;2689;50.954;7.116;2023-03-01T01:01:28;0.00;99.90
5334;DHT22;2689;50.954;7.116;2023-03-01T01:03:57;0.00;99.90
5334;DHT22;2689;50.954;7.116;2023-03-01T01:06:26;0.00;99.90
5334;DHT22;2689;50.954;7.116;2023-03-01T01:08:54;0.00;99.90
5334;DHT22;2689;50.954;7.116;2023-03-01T01:11:21;0.00;99.90
5334;DHT22;2689;50.954;7.116;2023-03-01T01:13:49;0.00;99.90
5334;DHT22;2689;50.954;7.116;2023-03-01T01:16:18;0.00;99.90
5334;DHT22;2689;50.954;7.116;2023-03-01T01:18:47;0.00;99.90
5334;DHT22;2689;50.954;7.116;2023-03-01T01:21:15;0.00;99.90
5334;DHT22;2689;50.954;7.116;2023-03-01T01:23:44;-0.10;99.90
5334;DHT22;2689;50.954;7.116;2023-03-01T01:26:13;-0.10;99.90
5334;DHT22;2689;50.954;7.116;2023-03-01T01:28:41;-0.10;99.90
5334;DHT22;2689;50.954;7.116;2023-03-01T01:31:08;-0.10;99.90
5334;DHT22;2689;50.954;7.116;2023-03-01T01:33:37;-0.10;99.90
5334;DHT22;2689;50.954;7.116;2023-03-01T01:36:06;-0.10;99.90
5334;DHT22;2689;50.954;7.116;2023-03-01T01:38:37;-0.20;99.90
5334;DHT22;2689;50.954;7.116;2023-03-01T01:41:06;-0.20;99.90
5334;DHT22;2689;50.954;7.116;2023-03-01T01:43:35;-0.20;99.90
5334;DHT22;2689;50.954;7.116;2023-03-01T01:46:05;-0.20;99.90
5334;DHT22;2689;50.954;7.116;2023-03-01T01:48:39;-0.30;99.90
5334;DHT22;2689;50.954;7.116;2023-03-01T01:51:14;-0.30;99.90
5334;DHT22;2689;50.954;7.116;2023-03-01T01:53:46;-0.30;99.90
5334;DHT22;2689;50.954;7.116;2023-03-01T01:56:17;-0.30;99.90
5334;DHT22;2689;50.954;7.116;2023-03-01T01:58:45;-0.30;99.90
5334;DHT22;2689;50.954;7.116;2023-03-01T02:01:12;-0.30;99.90
5334;DHT22;2689;50.954;7.116;2023-03-01T02:03:43;-0.30;99.90
5334;DHT22;2689;50.954;7.116;2023-03-01T02:06:18;-0.30;99.90
5334;DHT22;2689;50.954;7.116;2023-03-01T02:08:47;-0.30;99.90
5334;DHT22;2689;50.954;7.116;2023-03-01T02:11:15;-0.30;99.90
5334;DHT22;2689;50.954;7.116;2023-03-01T02:13:42;-0.30;99.90
5334;DHT22;2689;50.954;7.116;2023-03-01T02:16:10;-0.40;99.90
5334;DHT22;2689;50.954;7.116;2023-03-01T02:18:38;-0.30;99.90
5334;DHT22;2689;50.954;7.116;2023-03-01T02:21:21;-0.40;99.90
5334;DHT22;2689;50.954;7.116;2023-03-01T02:23:53;-0.40;99.90
5334;DHT22;2689;50.954;7.116;2023-03-01T02:26:27;-0.40;99.90
5334;DHT22;2689;50.954;7.116;2023-03-01T02:28:57;-0.40;99.90
5334;DHT22;2689;50.954;7.116;2023-03-01T02:31:24;-0.40;99.90
5334;DHT22;2689;50.954;7.116;2023-03-01T02:34:13;-0.40;99.90
5334;DHT22;2689;50.954;7.116;2023-03-01T02:36:44;-0.40;99.90
5334;DHT22;2689;50.954;7.116;2023-03-01T02:39:15;-0.50;99.90
5334;DHT22;2689;50.954;7.116;2023-03-01T02:41:47;-0.50;99.90
5334;DHT22;2689;50.954;7.116;2023-03-01T02:44:16;-0.50;99.90
5334;DHT22;2689;50.954;7.116;2023-03-01T02:46:44;-0.50;99.90
5334;DHT22;2689;50.954;7.116;2023-03-01T02:49:20;-0.50;99.90
5334;DHT22;2689;50.954;7.116;2023-03-01T02:55:05;-0.40;99.90
5334;DHT22;2689;50.954;7.116;2023-03-01T02:57:34;-0.40;99.90
5334;DHT22;2689;50.954;7.116;2023-03-01T03:00:07;-0.40;99.90
5334;DHT22;2689;50.954;7.116;2023-03-01T03:02:35;-0.40;99.90
5334;DHT22;2689;50.954;7.116;2023-03-01T03:05:08;-0.40;99.90
5334;DHT22;2689;50.954;7.116;2023-03-01T03:07:36;-0.40;99.90
5334;DHT22;2689;50.954;7.116;2023-03-01T03:10:04;-0.40;99.90
5334;DHT22;2689;50.954;7.116;2023-03-01T03:12:31;-0.40;99.90
5334;DHT22;2689;50.954;7.116;2023-03-01T03:14:58;-0.40;99.90
5334;DHT22;2689;50.954;7.116;2023-03-01T03:17:26;-0.40;99.90
5334;DHT22;2689;50.954;7.116;2023-03-01T03:19:53;-0.50;99.90
5334;DHT22;2689;50.954;7.116;2023-03-01T03:22:20;-0.50;99.90
5334;DHT22;2689;50.954;7.116;2023-03-01T03:24:47;-0.60;99.90
5334;DHT22;2689;50.954;7.116;2023-03-01T03:27:13;-0.60;99.90
5334;DHT22;2689;50.954;7.116;2023-03-01T03:29:40;-0.60;99.90
5334;DHT22;2689;50.954;7.116;2023-03-01T03:32:07;-0.60;99.90
5334;DHT22;2689;50.954;7.116;2023-03-01T03:34:35;-0.70;99.90
5334;DHT22;2689;50.954;7.116;2023-03-01T03:37:11;-0.70;99.90
5334;DHT22;2689;50.954;7.116;2023-03-01T03:39:52;-0.70;99.90
5334;DHT22;2689;50.954;7.116;2023-03-01T03:42:20;-0.80;99.90
5334;DHT22;2689;50.954;7.116;2023-03-01T03:44:46;-0.80;99.90
5334;DHT22;2689;50.954;7.116;2023-03-01T03:47:14;-0.80;99.90
5334;DHT22;2689;50.954;7.116;2023-03-01T03:49:42;-0.80;99.90
5334;DHT22;2689;50.954;7.116;2023-03-01T03:52:09;-0.80;99.90
5334;DHT22;2689;50.954;7.116;2023-03-01T03:54:39;-0.80;99.90
5334;DHT22;2689;50.954;7.116;2023-03-01T03:57:05;-0.90;99.90
5334;DHT22;2689;50.954;7.116;2023-03-01T03:59:32;-0.90;99.90
5334;DHT22;2689;50.954;7.116;2023-03-01T04:01:59;-1.00;99.90
5334;DHT22;2689;50.954;7.116;2023-03-01T04:04:26;-1.00;99.90
5334;DHT22;2689;50.954;7.116;2023-03-01T04:06:54;-1.00;99.90
5334;DHT22;2689;50.954;7.116;2023-03-01T04:09:21;-1.00;99.90
5334;DHT22;2689;50.954;7.116;2023-03-01T04:11:48;-1.10;99.90
5334;DHT22;2689;50.954;7.116;2023-03-01T04:14:15;-1.10;99.90
5334;DHT22;2689;50.954;7.116;2023-03-01T04:16:41;-1.10;99.90
5334;DHT22;2689;50.954;7.116;2023-03-01T04:19:08;-1.10;99.90
5334;DHT22;2689;50.954;7.116;2023-03-01T04:21:36;-1.20;99.90
5334;DHT22;2689;50.954;7.116;2023-03-01T04:24:04;-1.20;99.90
5334;DHT22;2689;50.954;7.116;2023-03-01T04:26:32;-1.20;99.90
5334;DHT22;2689;50.954;7.116;2023-03-01T04:28:58;-1.20;99.90
5334;DHT22;2689;50.954;7.116;2023-03-01T04:31:25;-1.20;99.90
5334;DHT22;2689;50.954;7.116;2023-03-01T04:33:53;-1.30;99.90
5334;DHT22;2689;50.954;7.116;2023-03-01T04:36:22;-1.30;99.90
5334;DHT22;2689;50.954;7.116;2023-03-01T04:38:49;-1.30;99.90
5334;DHT22;2689;50.954;7.116;2023-03-01T04:41:20;-1.30;99.90
5334;DHT22;2689;50.954;7.116;2023-03-01T04:43:47;-1.30;99.90
5334;DHT22;2689;50.954;7.116;2023-03-01T04:46:16;-1.30;99.90
5334;DHT22;2689;50.954;7.116;2023-03-01T04:48:44;-1.30;99.90
5334;DHT22;2689;50.954;7.116;2023-03-01T04:51:12;-1.40;99.90
5334;DHT22;2689;50.954;7.116;2023-03-01T04:53:40;-1.40;99.90
5334;DHT22;2689;50.954;7.116;2023-03-01T04:56:07;-1.40;99.90
5334;DHT22;2689;50.954;7.116;2023-03-01T04:58:35;-1.40;99.90
5334;DHT22;2689;50.954;7.116;2023-03-01T05:01:08;-1.40;99.90
5334;DHT22;2689;50.954;7.116;2023-03-01T05:03:41;-1.40;99.90
5334;DHT22;2689;50.954;7.116;2023-03-01T05:06:09;-1.50;99.90
5334;DHT22;2689;50.954;7.116;2023-03-01T05:08:36;-1.50;99.90
5334;DHT22;2689;50.954;7.116;2023-03-01T05:11:03;-1.50;99.90
5334;DHT22;2689;50.954;7.116;2023-03-01T05:13:30;-1.50;99.90
5334;DHT22;2689;50.954;7.116;2023-03-01T05:16:00;-1.50;99.90
5334;DHT22;2689;50.954;7.116;2023-03-01T05:18:28;-1.50;99.90
5334;DHT22;2689;50.954;7.116;2023-03-01T05:21:01;-1.50;99.90
5334;DHT22;2689;50.954;7.116;2023-03-01T05:23:29;-1.50;99.90
5334;DHT22;2689;50.954;7.116;2023-03-01T05:25:57;-1.60;99.90
5334;DHT22;2689;50.954;7.116;2023-03-01T05:28:25;-1.50;99.90
5334;DHT22;2689;50.954;7.116;2023-03-01T05:30:53;-1.60;99.90
5334;DHT22;2689;50.954;7.116;2023-03-01T05:33:22;-1.60;99.90
5334;DHT22;2689;50.954;7.116;2023-03-01T05:35:50;-1.60;99.90
5334;DHT22;2689;50.954;7.116;2023-03-01T05:38:17;-1.50;99.90
5334;DHT22;2689;50.954;7.116;2023-03-01T05:40:45;-1.60;99.90
5334;DHT22;2689;50.954;7.116;2023-03-01T05:43:14;-1.50;99.90
5334;DHT22;2689;50.954;7.116;2023-03-01T05:45:41;-1.60;99.90
5334;DHT22;2689;50.954;7.116;2023-03-01T05:48:09;-1.60;99.90
5334;DHT22;2689;50.954;7.116;2023-03-01T05:50:40;-1.60;99.90
5334;DHT22;2689;50.954;7.116;2023-03-01T05:53:10;-1.70;99.90
5334;DHT22;2689;50.954;7.116;2023-03-01T05:55:38;-1.70;99.90
5334;DHT22;2689;50.954;7.116;2023-03-01T05:58:07;-1.70;99.90
5334;DHT22;2689;50.954;7.116;2023-03-01T06:00:34;-1.60;99.90
5334;DHT22;2689;50.954;7.116;2023-03-01T06:03:01;-1.70;99.90
5334;DHT22;2689;50.954;7.116;2023-03-01T06:05:29;-1.70;99.90
5334;DHT22;2689;50.954;7.116;2023-03-01T06:08:01;-1.70;99.90
5334;DHT22;2689;50.954;7.116;2023-03-01T06:10:27;-1.70;99.90
5334;DHT22;2689;50.954;7.116;2023-03-01T06:12:55;-1.70;99.90
5334;DHT22;2689;50.954;7.116;2023-03-01T06:15:23;-1.70;99.90
5334;DHT22;2689;50.954;7.116;2023-03-01T06:17:50;-1.70;99.90
5334;DHT22;2689;50.954;7.116;2023-03-01T06:20:19;-1.80;99.90
5334;DHT22;2689;50.954;7.116;2023-03-01T06:22:46;-1.70;99.90
5334;DHT22;2689;50.954;7.116;2023-03-01T06:25:18;-1.70;99.90
5334;DHT22;2689;50.954;7.116;2023-03-01T06:27:46;-1.70;99.90
5334;DHT22;2689;50.954;7.116;2023-03-01T06:30:15;-1.70;99.90
5334;DHT22;2689;50.954;7.116;2023-03-01T06:32:42;-1.70;99.90
5334;DHT22;2689;50.954;7.116;2023-03-01T06:35:10;-1.70;99.90
5334;DHT22;2689;50.954;7.116;2023-03-01T06:37:39;-1.70;99.90
5334;DHT22;2689;50.954;7.116;2023-03-01T06:40:08;-1.60;99.90
5334;DHT22;2689;50.954;7.116;2023-03-01T06:42:39;-1.60;99.90
5334;DHT22;2689;50.954;7.116;2023-03-01T06:45:08;-1.50;99.90
5334;DHT22;2689;50.954;7.116;2023-03-01T06:47:35;-1.50;99.90
5334;DHT22;2689;50.954;7.116;2023-03-01T06:50:20;-1.40;99.90
5334;DHT22;2689;50.954;7.116;2023-03-01T06:52:57;-1.40;99.90
5334;DHT22;2689;50.954;7.116;2023-03-01T06:55:37;-1.40;99.90
5334;DHT22;2689;50.954;7.116;2023-03-01T06:58:20;-1.30;99.90
5334;DHT22;2689;50.954;7.116;2023-03-01T07:00:51;-1.30;99.90
5334;DHT22;2689;50.954;7.116;2023-03-01T07:03:17;-1.20;99.90
5334;DHT22;2689;50.954;7.116;2023-03-01T07:05:48;-1.10;99.90
5334;DHT22;2689;50.954;7.116;2023-03-01T07:08:23;-1.00;99.90
5334;DHT22;2689;50.954;7.116;2023-03-01T07:10:55;-1.00;99.90
5334;DHT22;2689;50.954;7.116;2023-03-01T07:13:23;-0.90;99.90
5334;DHT22;2689;50.954;7.116;2023-03-01T07:15:50;-0.80;99.90
5334;DHT22;2689;50.954;7.116;2023-03-01T07:18:17;-0.60;99.90
5334;DHT22;2689;50.954;7.116;2023-03-01T07:20:44;-0.50;99.90
5334;DHT22;2689;50.954;7.116;2023-03-01T07:23:11;-0.40;99.90
5334;DHT22;2689;50.954;7.116;2023-03-01T07:25:38;-0.30;99.90
5334;DHT22;2689;50.954;7.116;2023-03-01T07:28:04;-0.10;99.90
5334;DHT22;2689;50.954;7.116;2023-03-01T07:30:33;-0.10;99.90
5334;DHT22;2689;50.954;7.116;2023-03-01T07:33:00;0.00;99.90
5334;DHT22;2689;50.954;7.116;2023-03-01T07:35:27;0.10;99.90
5334;DHT22;2689;50.954;7.116;2023-03-01T07:38:05;0.20;99.90
5334;DHT22;2689;50.954;7.116;2023-03-01T07:40:51;0.30;99.90
5334;DHT22;2689;50.954;7.116;2023-03-01T07:43:23;0.50;99.90
5334;DHT22;2689;50.954;7.116;2023-03-01T07:45:51;0.60;99.90
5334;DHT22;2689;50.954;7.116;2023-03-01T07:48:19;0.70;99.90
5334;DHT22;2689;50.954;7.116;2023-03-01T07:50:49;0.90;99.90
5334;DHT22;2689;50.954;7.116;2023-03-01T07:53:16;1.00;99.90
5334;DHT22;2689;50.954;7.116;2023-03-01T07:55:48;1.60;99.90
5334;DHT22;2689;50.954;7.116;2023-03-01T07:58:15;2.40;99.90
5334;DHT22;2689;50.954;7.116;2023-03-01T08:00:45;3.70;99.90
5334;DHT22;2689;50.954;7.116;2023-03-01T08:03:13;5.20;96.70
5334;DHT22;2689;50.954;7.116;2023-03-01T08:05:40;6.70;92.10
5334;DHT22;2689;50.954;7.116;2023-03-01T08:08:09;8.10;84.20
5334;DHT22;2689;50.954;7.116;2023-03-01T08:10:36;9.60;76.70
5334;DHT22;2689;50.954;7.116;2023-03-01T08:13:03;10.90;67.80
5334;DHT22;2689;50.954;7.116;2023-03-01T08:15:34;11.80;61.00
5334;DHT22;2689;50.954;7.116;2023-03-01T08:18:13;13.00;57.50
5334;DHT22;2689;50.954;7.116;2023-03-01T08:20:40;14.00;52.60
5334;DHT22;2689;50.954;7.116;2023-03-01T08:23:11;14.60;49.10
5334;DHT22;2689;50.954;7.116;2023-03-01T08:25:38;15.20;48.50
5334;DHT22;2689;50.954;7.116;2023-03-01T08:28:44;15.10;44.10
5334;DHT22;2689;50.954;7.116;2023-03-01T08:31:53;15.80;44.80
5334;DHT22;2689;50.954;7.116;2023-03-01T08:40:34;16.60;41.00
5334;DHT22;2689;50.954;7.116;2023-03-01T08:43:16;17.60;40.60
5334;DHT22;2689;50.954;7.116;2023-03-01T08:49:19;19.30;36.90
5334;DHT22;2689;50.954;7.116;2023-03-01T08:51:53;19.50;35.70
5334;DHT22;2689;50.954;7.116;2023-03-01T08:54:22;19.90;34.80
5334;DHT22;2689;50.954;7.116;2023-03-01T08:56:49;20.00;33.30
5334;DHT22;2689;50.954;7.116;2023-03-01T08:59:17;20.30;33.80
5334;DHT22;2689;50.954;7.116;2023-03-01T09:01:52;20.70;33.40
5334;DHT22;2689;50.954;7.116;2023-03-01T09:04:26;21.10;32.40
5334;DHT22;2689;50.954;7.116;2023-03-01T09:10:50;21.50;31.40
5334;DHT22;2689;50.954;7.116;2023-03-01T09:12:59;21.20;29.90
5334;DHT22;2689;50.954;7.116;2023-03-01T09:22:50;20.90;30.00
5334;DHT22;2689;50.954;7.116;2023-03-01T09:25:34;21.30;30.70
5334;DHT22;2689;50.954;7.116;2023-03-01T09:32:24;20.70;30.00
5334;DHT22;2689;50.954;7.116;2023-03-01T09:38:20;20.20;29.80
5334;DHT22;2689;50.954;7.116;2023-03-01T09:40:49;20.20;30.10
5334;DHT22;2689;50.954;7.116;2023-03-01T09:43:52;20.30;30.80
5334;DHT22;2689;50.954;7.116;2023-03-01T09:46:23;20.60;30.00
5334;DHT22;2689;50.954;7.116;2023-03-01T09:52:01;20.40;29.90
5334;DHT22;2689;50.954;7.116;2023-03-01T09:54:30;20.80;30.10
5334;DHT22;2689;50.954;7.116;2023-03-01T09:57:06;21.20;29.50
5334;DHT22;2689;50.954;7.116;2023-03-01T10:02:41;22.50;28.80
5334;DHT22;2689;50.954;7.116;2023-03-01T10:05:36;22.50;28.70
5334;DHT22;2689;50.954;7.116;2023-03-01T10:08:28;22.30;27.80
5334;DHT22;2689;50.954;7.116;2023-03-01T10:10:57;22.00;27.80
5334;DHT22;2689;50.954;7.116;2023-03-01T10:13:48;21.90;28.40
5334;DHT22;2689;50.954;7.116;2023-03-01T10:16:46;22.10;28.40
5334;DHT22;2689;50.954;7.116;2023-03-01T10:19:47;22.50;27.80
5334;DHT22;2689;50.954;7.116;2023-03-01T10:45:59;25.20;25.70
5334;DHT22;2689;50.954;7.116;2023-03-01T11:03:04;23.30;25.60
5334;DHT22;2689;50.954;7.116;2023-03-01T11:05:51;23.40;26.30
5334;DHT22;2689;50.954;7.116;2023-03-01T11:09:01;23.90;25.70
5334;DHT22;2689;50.954;7.116;2023-03-01T11:15:08;24.30;25.90
5334;DHT22;2689;50.954;7.116;2023-03-01T11:17:44;24.90;26.20
5334;DHT22;2689;50.954;7.116;2023-03-01T11:20:20;25.20;25.30
5334;DHT22;2689;50.954;7.116;2023-03-01T11:22:55;25.60;24.80
5334;DHT22;2689;50.954;7.116;2023-03-01T11:32:45;24.40;24.10
5334;DHT22;2689;50.954;7.116;2023-03-01T11:35:35;24.20;25.60
5334;DHT22;2689;50.954;7.116;2023-03-01T11:38:22;24.20;24.50
5334;DHT22;2689;50.954;7.116;2023-03-01T11:41:06;23.80;25.00
5334;DHT22;2689;50.954;7.116;2023-03-01T11:43:43;24.10;25.10
5334;DHT22;2689;50.954;7.116;2023-03-01T11:46:38;24.10;25.00
5334;DHT22;2689;50.954;7.116;2023-03-01T11:49:43;24.20;24.90
5334;DHT22;2689;50.954;7.116;2023-03-01T11:52:38;23.90;24.50
5334;DHT22;2689;50.954;7.116;2023-03-01T11:55:23;23.70;24.60
5334;DHT22;2689;50.954;7.116;2023-03-01T11:58:14;23.60;25.30
5334;DHT22;2689;50.954;7.116;2023-03-01T12:01:01;23.10;24.90
5334;DHT22;2689;50.954;7.116;2023-03-01T12:06:42;23.30;25.40
5334;DHT22;2689;50.954;7.116;2023-03-01T12:16:40;22.00;26.50
5334;DHT22;2689;50.954;7.116;2023-03-01T12:22:48;21.90;25.90
5334;DHT22;2689;50.954;7.116;2023-03-01T12:25:25;22.10;26.60
5334;DHT22;2689;50.954;7.116;2023-03-01T12:28:10;22.00;26.30
5334;DHT22;2689;50.954;7.116;2023-03-01T12:30:57;22.20;26.70
5334;DHT22;2689;50.954;7.116;2023-03-01T12:33:37;22.50;25.80
5334;DHT22;2689;50.954;7.116;2023-03-01T12:36:42;22.20;25.80
5334;DHT22;2689;50.954;7.116;2023-03-01T12:39:24;22.40;25.70
5334;DHT22;2689;50.954;7.116;2023-03-01T12:42:01;22.10;25.40
5334;DHT22;2689;50.954;7.116;2023-03-01T12:44:47;21.50;25.60
5334;DHT22;2689;50.954;7.116;2023-03-01T12:47:26;21.40;25.60
5334;DHT22;2689;50.954;7.116;2023-03-01T12:50:03;21.10;25.90
5334;DHT22;2689;50.954;7.116;2023-03-01T12:52:37;21.30;26.30
5334;DHT22;2689;50.954;7.116;2023-03-01T12:55:17;21.20;26.00
5334;DHT22;2689;50.954;7.116;2023-03-01T12:57:50;21.00;26.50
5334;DHT22;2689;50.954;7.116;2023-03-01T13:00:26;20.70;26.30
5334;DHT22;2689;50.954;7.116;2023-03-01T13:03:00;20.50;26.90
5334;DHT22;2689;50.954;7.116;2023-03-01T13:05:41;20.50;27.10
5334;DHT22;2689;50.954;7.116;2023-03-01T13:08:16;20.30;26.70
5334;DHT22;2689;50.954;7.116;2023-03-01T13:10:49;20.00;27.00
5334;DHT22;2689;50.954;7.116;2023-03-01T13:13:21;19.70;27.00
5334;DHT22;2689;50.954;7.116;2023-03-01T13:15:49;19.00;27.20
5334;DHT22;2689;50.954;7.116;2023-03-01T13:18:31;18.90;28.20
5334;DHT22;2689;50.954;7.116;2023-03-01T13:21:02;18.70;28.90
5334;DHT22;2689;50.954;7.116;2023-03-01T13:23:32;18.40;29.40
5334;DHT22;2689;50.954;7.116;2023-03-01T13:26:08;18.30;30.10
5334;DHT22;2689;50.954;7.116;2023-03-01T13:28:50;18.40;30.10
5334;DHT22;2689;50.954;7.116;2023-03-01T13:34:47;18.90;29.70
5334;DHT22;2689;50.954;7.116;2023-03-01T13:37:31;19.20;30.00
5334;DHT22;2689;50.954;7.116;2023-03-01T13:40:04;19.50;29.60
5334;DHT22;2689;50.954;7.116;2023-03-01T13:42:42;19.70;30.00
5334;DHT22;2689;50.954;7.116;2023-03-01T13:45:21;20.10;29.50
5334;DHT22;2689;50.954;7.116;2023-03-01T13:47:54;20.50;29.50
5334;DHT22;2689;50.954;7.116;2023-03-01T13:50:25;20.90;29.50
5334;DHT22;2689;50.954;7.116;2023-03-01T13:52:56;21.00;28.90
5334;DHT22;2689;50.954;7.116;2023-03-01T13:55:30;21.30;28.90
5334;DHT22;2689;50.954;7.116;2023-03-01T13:58:01;21.60;28.30
5334;DHT22;2689;50.954;7.116;2023-03-01T14:00:34;21.60;28.10
5334;DHT22;2689;50.954;7.116;2023-03-01T14:03:04;21.90;28.70
5334;DHT22;2689;50.954;7.116;2023-03-01T14:05:31;22.40;27.70
5334;DHT22;2689;50.954;7.116;2023-03-01T14:07:59;22.80;27.90
5334;DHT22;2689;50.954;7.116;2023-03-01T14:10:35;23.20;27.30
5334;DHT22;2689;50.954;7.116;2023-03-01T14:13:12;23.30;27.40
5334;DHT22;2689;50.954;7.116;2023-03-01T14:15:54;23.60;27.50
5334;DHT22;2689;50.954;7.116;2023-03-01T14:18:28;23.90;27.20
5334;DHT22;2689;50.954;7.116;2023-03-01T14:20:57;24.10;27.20
5334;DHT22;2689;50.954;7.116;2023-03-01T14:23:26;24.20;27.10
5334;DHT22;2689;50.954;7.116;2023-03-01T14:25:57;24.10;26.70
5334;DHT22;2689;50.954;7.116;2023-03-01T14:28:26;24.00;27.20
5334;DHT22;2689;50.954;7.116;2023-03-01T14:30:54;23.80;27.70
5334;DHT22;2689;50.954;7.116;2023-03-01T14:33:23;23.70;27.70
5334;DHT22;2689;50.954;7.116;2023-03-01T14:35:56;23.70;27.90
5334;DHT22;2689;50.954;7.116;2023-03-01T14:38:33;23.40;28.10
5334;DHT22;2689;50.954;7.116;2023-03-01T14:41:03;23.20;29.50
5334;DHT22;2689;50.954;7.116;2023-03-01T14:43:30;23.00;29.20
5334;DHT22;2689;50.954;7.116;2023-03-01T14:45:57;23.00;29.40
5334;DHT22;2689;50.954;7.116;2023-03-01T14:48:25;22.80;29.60
5334;DHT22;2689;50.954;7.116;2023-03-01T14:50:53;22.40;29.60
5334;DHT22;2689;50.954;7.116;2023-03-01T14:53:22;21.50;29.80
5334;DHT22;2689;50.954;7.116;2023-03-01T14:55:54;20.60;30.40
5334;DHT22;2689;50.954;7.116;2023-03-01T14:58:22;20.10;31.90
5334;DHT22;2689;50.954;7.116;2023-03-01T15:00:52;19.70;32.80
5334;DHT22;2689;50.954;7.116;2023-03-01T15:03:24;19.60;32.50
5334;DHT22;2689;50.954;7.116;2023-03-01T15:05:52;19.20;33.00
5334;DHT22;2689;50.954;7.116;2023-03-01T15:08:22;18.50;33.60
5334;DHT22;2689;50.954;7.116;2023-03-01T15:11:01;17.90;33.60
5334;DHT22;2689;50.954;7.116;2023-03-01T15:13:31;17.60;34.20
5334;DHT22;2689;50.954;7.116;2023-03-01T15:16:03;17.30;33.90
5334;DHT22;2689;50.954;7.116;2023-03-01T15:18:32;17.00;35.00
5334;DHT22;2689;50.954;7.116;2023-03-01T15:21:07;16.80;35.40
5334;DHT22;2689;50.954;7.116;2023-03-01T15:23:36;16.20;35.30
5334;DHT22;2689;50.954;7.116;2023-03-01T15:26:16;16.00;36.10
5334;DHT22;2689;50.954;7.116;2023-03-01T15:28:50;15.60;36.20
5334;DHT22;2689;50.954;7.116;2023-03-01T15:31:20;15.40;37.10
5334;DHT22;2689;50.954;7.116;2023-03-01T15:33:48;15.20;37.50
5334;DHT22;2689;50.954;7.116;2023-03-01T15:36:37;14.90;37.70
5334;DHT22;2689;50.954;7.116;2023-03-01T15:44:28;14.00;38.60
5334;DHT22;2689;50.954;7.116;2023-03-01T15:46:55;13.60;39.00
5334;DHT22;2689;50.954;7.116;2023-03-01T15:49:30;13.30;39.60
5334;DHT22;2689;50.954;7.116;2023-03-01T15:51:58;13.10;40.30
5334;DHT22;2689;50.954;7.116;2023-03-01T15:54:26;12.70;40.00
5334;DHT22;2689;50.954;7.116;2023-03-01T15:56:54;12.30;40.50
5334;DHT22;2689;50.954;7.116;2023-03-01T15:59:21;12.00;41.20
5334;DHT22;2689;50.954;7.116;2023-03-01T16:01:49;12.00;42.00
5334;DHT22;2689;50.954;7.116;2023-03-01T16:04:17;11.80;41.90
5334;DHT22;2689;50.954;7.116;2023-03-01T16:06:48;11.50;41.50
5334;DHT22;2689;50.954;7.116;2023-03-01T16:09:21;11.30;41.90
5334;DHT22;2689;50.954;7.116;2023-03-01T16:11:48;11.10;42.10
5334;DHT22;2689;50.954;7.116;2023-03-01T16:14:15;10.80;42.40
5334;DHT22;2689;50.954;7.116;2023-03-01T16:16:42;10.60;43.10
5334;DHT22;2689;50.954;7.116;2023-03-01T16:19:11;10.60;44.00
5334;DHT22;2689;50.954;7.116;2023-03-01T16:21:38;10.50;44.50
5334;DHT22;2689;50.954;7.116;2023-03-01T16:24:05;10.40;44.70
5334;DHT22;2689;50.954;7.116;2023-03-01T16:26:32;10.20;44.90
5334;DHT22;2689;50.954;7.116;2023-03-01T16:28:59;10.20;45.30
5334;DHT22;2689;50.954;7.116;2023-03-01T16:31:26;10.10;45.50
5334;DHT22;2689;50.954;7.116;2023-03-01T16:33:54;9.90;46.50
5334;DHT22;2689;50.954;7.116;2023-03-01T16:36:24;9.70;46.70
5334;DHT22;2689;50.954;7.116;2023-03-01T16:38:54;9.50;47.00
5334;DHT22;2689;50.954;7.116;2023-03-01T16:41:22;9.40;47.40
5334;DHT22;2689;50.954;7.116;2023-03-01T16:43:50;9.30;47.80
5334;DHT22;2689;50.954;7.116;2023-03-01T16:46:18;9.20;48.10
5334;DHT22;2689;50.954;7.116;2023-03-01T16:48:46;9.10;48.50
5334;DHT22;2689;50.954;7.116;2023-03-01T16:51:14;9.10;49.10
5334;DHT22;2689;50.954;7.116;2023-03-01T16:53:43;9.00;49.50
5334;DHT22;2689;50.954;7.116;2023-03-01T16:56:11;9.00;49.70
5334;DHT22;2689;50.954;7.116;2023-03-01T16:58:39;8.90;49.90
5334;DHT22;2689;50.954;7.116;2023-03-01T17:01:07;8.80;50.10
5334;DHT22;2689;50.954;7.116;2023-03-01T17:03:34;8.70;50.30
5334;DHT22;2689;50.954;7.116;2023-03-01T17:06:02;8.60;50.60
5334;DHT22;2689;50.954;7.116;2023-03-01T17:08:30;8.50;50.80
5334;DHT22;2689;50.954;7.116;2023-03-01T17:11:04;8.30;51.00
5334;DHT22;2689;50.954;7.116;2023-03-01T17:13:31;8.20;51.20
5334;DHT22;2689;50.954;7.116;2023-03-01T17:15:57;8.10;51.40
5334;DHT22;2689;50.954;7.116;2023-03-01T17:18:24;8.00;51.70
5334;DHT22;2689;50.954;7.116;2023-03-01T17:20:51;8.00;52.10
5334;DHT22;2689;50.954;7.116;2023-03-01T17:23:18;7.80;52.20
5334;DHT22;2689;50.954;7.116;2023-03-01T17:25:44;7.70;52.30
5334;DHT22;2689;50.954;7.116;2023-03-01T17:28:13;7.60;52.50
5334;DHT22;2689;50.954;7.116;2023-03-01T17:30:41;7.50;52.80
5334;DHT22;2689;50.954;7.116;2023-03-01T17:33:09;7.40;53.00
5334;DHT22;2689;50.954;7.116;2023-03-01T17:35:37;7.30;53.30
5334;DHT22;2689;50.954;7.116;2023-03-01T17:38:03;7.20;53.50
5334;DHT22;2689;50.954;7.116;2023-03-01T17:40:30;7.20;53.70
5334;DHT22;2689;50.954;7.116;2023-03-01T17:42:58;7.10;53.80
5334;DHT22;2689;50.954;7.116;2023-03-01T17:45:26;7.00;54.00
5334;DHT22;2689;50.954;7.116;2023-03-01T17:47:53;6.90;54.20
5334;DHT22;2689;50.954;7.116;2023-03-01T17:50:20;6.90;54.50
5334;DHT22;2689;50.954;7.116;2023-03-01T17:52:46;6.80;54.60
5334;DHT22;2689;50.954;7.116;2023-03-01T17:55:14;6.70;54.70
5334;DHT22;2689;50.954;7.116;2023-03-01T17:58:02;6.70;54.70
5334;DHT22;2689;50.954;7.116;2023-03-01T18:00:31;6.60;54.80
5334;DHT22;2689;50.954;7.116;2023-03-01T18:06:43;6.50;54.80
5334;DHT22;2689;50.954;7.116;2023-03-01T18:13:01;6.40;54.90
5334;DHT22;2689;50.954;7.116;2023-03-01T18:15:56;6.30;54.80
5334;DHT22;2689;50.954;7.116;2023-03-01T18:18:26;6.30;54.90
5334;DHT22;2689;50.954;7.116;2023-03-01T18:20:57;6.20;54.80
5334;DHT22;2689;50.954;7.116;2023-03-01T18:23:24;6.20;54.70
5334;DHT22;2689;50.954;7.116;2023-03-01T18:25:51;6.10;54.70
5334;DHT22;2689;50.954;7.116;2023-03-01T18:28:20;6.10;54.70